CheckWX is a tool to help pilots better visualize weather data.  It is not intended as a substitute for an official pre-flight weather briefing.

11:47:25 UTC

KUES METAR
Waukesha County Airport
Waukesha, Wisconsin, USA
Current

12 mins ago

KUES 261135Z AUTO 33010KT 10SM OVC020 M05/M08 A3012 RMK AO2
Observed
Feb-26 @ 11:35 UTC
Wind
  • 330° at 10 KTS
Visibility
10 SM
Flight Rules
MVFR
Cloud Levels
  • Overcast at 2,000' AGL
Temperature
-5°C / 23°F
Dewpoint
-8°C / 18°F
Humidity
80%
Altimeter
30.12" Hg
Pressure
1020.02 hPa
Previous

32 mins ago

KUES 261115Z AUTO 35010KT 10SM OVC020 M05/M08 A3012 RMK AO2
Observed
Feb-26 @ 11:15 UTC
Wind
  • 350° at 10 KTS
Visibility
10 SM
Flight Rules
MVFR
Cloud Levels
  • Overcast at 2,000' AGL
Temperature
-5°C / 23°F
Dewpoint
-8°C / 18°F
Humidity
80%
Altimeter
30.12" Hg
Pressure
1020.02 hPa
Previous

1 hour ago

KUES 261035Z AUTO 35011KT 10SM OVC020 M05/M08 A3011 RMK AO2
Observed
Feb-26 @ 10:35 UTC
Wind
  • 350° at 11 KTS
Visibility
10 SM
Flight Rules
MVFR
Cloud Levels
  • Overcast at 2,000' AGL
Temperature
-5°C / 23°F
Dewpoint
-8°C / 18°F
Humidity
80%
Altimeter
30.11" Hg
Pressure
1019.62 hPa